Branch #1, Nevada
Current Conditions -  °F | °C
As of 1:55 AM on Tuesday 21 Oct 2014 (Local Time) from KCXP Reporting Station
Broken Clouds Broken Clouds  
Wind Chill: 45°   Ceiling: 6000
Heat Index: 45°   Visibility: 10mi
Dew Point: 27°   Wind: 3mph
Humidity: 49%   Direction: 120°ESE
Pressure: 30.06"   Gusts: NA
Location:  39.2925°N, 119.784°W
Report Text: KCXP 210855Z AUTO 12003KT 10SM BKN060 07/M03 A3006 RMK AO2
Loading
Personal Weather Stations






























Interactive Weather Map
Tropical Storm Tracking
New forecast layout! Learn more

10-Day Weather Forecast

Advertisements
Track Severe Weather on mobile